createdAt,value
2022-09-12T00:00:34.320Z,9.418221
2022-09-12T00:01:33.350Z,9.418262
2022-09-12T00:02:33.296Z,9.418196
2022-09-12T00:03:33.291Z,9.418268
2022-09-12T00:04:33.281Z,9.418238
2022-09-12T00:05:33.284Z,9.418290
2022-09-12T00:06:33.273Z,9.418271
2022-09-12T00:07:33.256Z,9.418321
2022-09-12T00:08:33.256Z,9.418313
2022-09-12T00:09:33.252Z,9.418240
2022-09-12T00:10:33.256Z,9.418245
2022-09-12T00:11:33.236Z,9.418206
2022-09-12T00:12:33.244Z,9.418199
2022-09-12T00:13:33.220Z,9.418163
2022-09-12T00:14:33.220Z,9.418248
2022-09-12T00:15:33.220Z,9.418268
2022-09-12T00:16:33.347Z,9.418315
2022-09-12T00:17:33.192Z,9.418252
2022-09-12T00:18:33.187Z,9.418315
2022-09-12T00:19:33.184Z,9.418325
2022-09-12T00:20:33.187Z,9.418307
2022-09-12T00:21:33.172Z,9.418290
2022-09-12T00:22:33.168Z,9.418236
2022-09-12T00:23:33.156Z,9.418240
2022-09-12T00:24:33.153Z,9.418222
2022-09-12T00:25:33.145Z,9.418203
2022-09-12T00:26:33.149Z,9.418319
2022-09-12T00:27:33.120Z,9.418415
2022-09-12T00:28:33.146Z,9.418382
2022-09-12T00:29:33.113Z,9.418411
2022-09-12T00:30:33.129Z,9.418313
2022-09-12T00:31:33.194Z,9.418165
2022-09-12T00:32:33.084Z,9.418181
2022-09-12T00:33:33.094Z,9.418201
2022-09-12T00:34:33.087Z,9.418315
2022-09-12T00:35:33.073Z,9.418377
2022-09-12T00:36:33.077Z,9.418236
2022-09-12T00:37:33.068Z,9.418295
2022-09-12T00:38:33.065Z,9.418298
2022-09-12T00:39:33.053Z,9.418236
2022-09-12T00:40:33.053Z,9.418205
2022-09-12T00:41:33.057Z,9.418184
2022-09-12T00:42:33.030Z,9.418217
2022-09-12T00:43:33.026Z,9.418270
2022-09-12T00:44:33.017Z,9.418307
2022-09-12T00:45:33.027Z,9.418271
2022-09-12T00:46:33.001Z,9.418224
2022-09-12T00:47:33.001Z,9.418295
2022-09-12T00:48:32.989Z,9.418259
2022-09-12T00:49:32.981Z,9.418229
2022-09-12T00:50:32.985Z,9.418178
2022-09-12T00:51:32.970Z,9.418154
2022-09-12T00:52:32.973Z,9.418204
2022-09-12T00:53:32.949Z,9.418291
2022-09-12T00:54:32.944Z,9.418256
2022-09-12T00:55:32.931Z,9.418202
2022-09-12T00:56:32.925Z,9.418239
2022-09-12T00:57:32.929Z,9.418270
2022-09-12T00:58:32.917Z,9.418232
2022-09-12T00:59:32.914Z,9.418303
2022-09-12T01:00:32.906Z,9.418303
2022-09-12T01:01:33.106Z,9.418276
2022-09-12T01:02:32.897Z,9.418301
2022-09-12T01:03:32.886Z,9.418263
2022-09-12T01:04:32.870Z,9.418320
2022-09-12T01:05:32.860Z,9.418293
2022-09-12T01:06:32.868Z,9.418248
2022-09-12T01:07:35.798Z,9.418283
2022-09-12T01:08:33.861Z,9.418314
2022-09-12T01:09:32.857Z,9.418323
2022-09-12T01:10:32.829Z,9.418290
2022-09-12T01:11:32.833Z,9.418226
2022-09-12T01:12:32.827Z,9.418209
2022-09-12T01:13:32.825Z,9.418195
2022-09-12T01:14:32.825Z,9.418303
2022-09-12T01:15:32.802Z,9.418251
2022-09-12T01:16:32.825Z,9.418234
2022-09-12T01:17:32.785Z,9.418234
2022-09-12T01:18:32.793Z,9.418202
2022-09-12T01:19:32.781Z,9.418253
2022-09-12T01:20:32.770Z,9.418288
2022-09-12T01:21:32.761Z,9.418282
2022-09-12T01:22:32.748Z,9.418258
2022-09-12T01:23:32.746Z,9.418225
2022-09-12T01:24:32.759Z,9.418237
2022-09-12T01:25:32.728Z,9.418248
2022-09-12T01:26:32.728Z,9.418309
2022-09-12T01:27:32.713Z,9.418248
2022-09-12T01:28:32.713Z,9.418293
2022-09-12T01:29:32.718Z,9.418308
2022-09-12T01:30:32.698Z,9.418262
2022-09-12T01:31:32.697Z,9.418283
2022-09-12T01:32:32.686Z,9.418254
2022-09-12T01:33:32.678Z,9.418242
2022-09-12T01:34:32.699Z,9.418273
2022-09-12T01:35:32.669Z,9.418294
2022-09-12T01:36:32.657Z,9.418268
2022-09-12T01:37:32.645Z,9.418233
2022-09-12T01:38:32.644Z,9.418274
2022-09-12T01:39:32.631Z,9.418286
2022-09-12T01:40:32.641Z,9.418258
2022-09-12T01:41:32.629Z,9.418255
2022-09-12T01:42:32.618Z,9.418250
2022-09-12T01:43:32.613Z,9.418299
2022-09-12T01:44:32.613Z,9.418245
2022-09-12T01:45:32.667Z,9.418312
2022-09-12T01:46:32.593Z,9.418397
2022-09-12T01:47:32.584Z,9.418441
2022-09-12T01:48:32.572Z,9.418378
2022-09-12T01:49:32.566Z,9.418306
2022-09-12T01:50:32.572Z,9.418297
2022-09-12T01:51:32.556Z,9.418259
2022-09-12T01:52:32.551Z,9.418292
2022-09-12T01:53:32.544Z,9.418264
2022-09-12T01:54:32.535Z,9.418259
2022-09-12T01:55:32.541Z,9.418302
2022-09-12T01:56:32.524Z,9.418227
2022-09-12T01:57:32.508Z,9.418206
2022-09-12T01:58:32.512Z,9.418179
2022-09-12T01:59:32.509Z,9.418353
2022-09-12T02:00:32.525Z,9.418367
2022-09-12T02:01:32.506Z,9.418353
2022-09-12T02:02:32.476Z,9.418282
2022-09-12T02:03:32.470Z,9.418342
2022-09-12T02:04:34.360Z,9.418307
2022-09-12T02:05:33.490Z,9.418324
2022-09-12T02:06:32.477Z,9.418376
2022-09-12T02:07:32.452Z,9.418431
2022-09-12T02:08:32.441Z,9.418234
2022-09-12T02:09:32.439Z,9.418272
2022-09-12T02:10:32.863Z,9.418303
2022-09-12T02:11:33.429Z,9.418362
2022-09-12T02:12:32.412Z,9.418296
2022-09-12T02:13:32.412Z,9.418408
2022-09-12T02:14:32.408Z,9.418450
2022-09-12T02:15:32.401Z,9.418486
2022-09-12T02:16:32.413Z,9.418328
2022-09-12T02:17:32.378Z,9.418263
2022-09-12T02:18:32.377Z,9.418286
2022-09-12T02:19:32.365Z,9.418433
2022-09-12T02:20:47.550Z,9.418282
2022-09-12T02:21:34.349Z,9.418377
2022-09-12T02:22:32.359Z,9.418186
2022-09-12T02:23:32.354Z,9.418360
2022-09-12T02:24:32.328Z,9.418441
2022-09-12T02:25:32.328Z,9.418262
2022-09-12T02:26:32.309Z,9.418327
2022-09-12T02:27:33.310Z,9.418283
2022-09-12T02:28:32.330Z,9.418253
2022-09-12T02:29:32.309Z,9.418257
2022-09-12T02:30:32.350Z,9.418372
2022-09-12T02:31:32.289Z,9.418525
2022-09-12T02:32:32.288Z,9.418470
2022-09-12T02:33:32.297Z,9.418412
2022-09-12T02:34:32.339Z,9.418335
2022-09-12T02:35:32.269Z,9.418382
2022-09-12T02:36:32.265Z,9.418402
2022-09-12T02:37:32.253Z,9.418157
2022-09-12T02:38:32.249Z,9.418185
2022-09-12T02:39:32.252Z,9.418180
2022-09-12T02:40:32.224Z,9.418217
2022-09-12T02:41:32.221Z,9.418227
2022-09-12T02:42:32.217Z,9.418189
2022-09-12T02:43:33.080Z,9.418258
2022-09-12T02:44:32.220Z,9.418202
2022-09-12T02:45:32.270Z,9.418264
2022-09-12T02:46:32.180Z,9.418106
2022-09-12T02:47:32.177Z,9.418161
2022-09-12T02:48:32.173Z,9.418173
2022-09-12T02:49:32.168Z,9.418237
2022-09-12T02:50:32.162Z,9.418416
2022-09-12T02:51:32.164Z,9.418390
2022-09-12T02:52:32.152Z,9.418268
2022-09-12T02:53:32.145Z,9.418290
2022-09-12T02:54:32.147Z,9.418257
2022-09-12T02:55:32.136Z,9.418185
2022-09-12T02:56:32.118Z,9.418388
2022-09-12T02:57:33.112Z,9.418103
2022-09-12T02:58:32.100Z,9.418151
2022-09-12T02:59:32.100Z,9.418106
2022-09-12T03:00:32.101Z,9.418190
2022-09-12T03:01:32.111Z,9.418274
2022-09-12T03:02:32.078Z,9.418218
2022-09-12T03:03:32.068Z,9.418312
2022-09-12T03:04:32.076Z,9.418255
2022-09-12T03:05:32.066Z,9.418256
2022-09-12T03:06:32.052Z,9.418288
2022-09-12T03:07:32.036Z,9.418381
2022-09-12T03:08:32.038Z,9.418457
2022-09-12T03:09:32.029Z,9.418092
2022-09-12T03:10:32.021Z,9.418264
2022-09-12T03:11:32.028Z,9.418146
2022-09-12T03:12:32.007Z,9.418124
2022-09-12T03:13:31.992Z,9.418001
2022-09-12T03:14:32.991Z,9.418184
2022-09-12T03:15:32.001Z,9.418120
2022-09-12T03:16:32.019Z,9.418243
2022-09-12T03:17:31.957Z,9.418451
2022-09-12T03:18:31.966Z,9.418550
2022-09-12T03:19:31.960Z,9.418498
2022-09-12T03:20:31.961Z,9.418514
2022-09-12T03:21:31.964Z,9.418496
2022-09-12T03:22:31.940Z,9.418570
2022-09-12T03:23:31.920Z,9.418447
2022-09-12T03:24:31.926Z,9.418769
2022-09-12T03:25:31.917Z,9.418774
2022-09-12T03:26:31.928Z,9.418586
2022-09-12T03:27:31.908Z,9.418385
2022-09-12T03:28:31.896Z,9.418226
2022-09-12T03:29:31.889Z,9.418628
2022-09-12T03:30:31.934Z,9.418344
2022-09-12T03:31:31.883Z,9.418318
2022-09-12T03:32:31.865Z,9.418568
2022-09-12T03:33:31.859Z,9.418363
2022-09-12T03:34:31.853Z,9.418435
2022-09-12T03:35:31.844Z,9.418406
2022-09-12T03:36:31.845Z,9.418264
2022-09-12T03:37:31.825Z,9.418324
2022-09-12T03:38:31.816Z,9.418415
2022-09-12T03:39:31.817Z,9.418674
2022-09-12T03:40:31.808Z,9.418827
2022-09-12T03:41:31.813Z,9.418341
2022-09-12T03:42:31.800Z,9.418252
2022-09-12T03:43:31.792Z,9.418120
2022-09-12T03:44:31.780Z,9.418266
2022-09-12T03:45:31.807Z,9.418324
2022-09-12T03:46:31.768Z,9.418225
2022-09-12T03:47:31.775Z,9.418251
2022-09-12T03:48:31.756Z,9.418100
2022-09-12T03:49:31.743Z,9.418149
2022-09-12T03:50:31.745Z,9.418223
2022-09-12T03:51:31.740Z,9.418189
2022-09-12T03:52:31.728Z,9.418125
2022-09-12T03:53:31.740Z,9.418147
2022-09-12T03:54:31.721Z,9.418172
2022-09-12T03:55:31.708Z,9.418220
2022-09-12T03:56:31.707Z,9.418158
2022-09-12T03:57:31.711Z,9.418262
2022-09-12T03:58:31.683Z,9.418216
2022-09-12T03:59:31.681Z,9.418139
2022-09-12T04:00:31.677Z,9.418082
2022-09-12T04:01:31.686Z,9.418105
2022-09-12T04:02:31.689Z,9.418255
2022-09-12T04:03:31.672Z,9.418289
2022-09-12T04:04:31.652Z,9.418098
2022-09-12T04:05:31.636Z,9.418222
2022-09-12T04:06:31.635Z,9.418388
2022-09-12T04:07:31.628Z,9.418264
2022-09-12T04:08:31.635Z,9.418147
2022-09-12T04:09:31.615Z,9.418425
2022-09-12T04:10:31.607Z,9.418438
2022-09-12T04:11:31.612Z,9.418298
2022-09-12T04:12:31.597Z,9.418267
2022-09-12T04:13:31.997Z,9.418177
2022-09-12T04:14:31.581Z,9.418073
2022-09-12T04:15:31.583Z,9.418276
2022-09-12T04:16:31.580Z,9.418162
2022-09-12T04:17:32.555Z,9.418127
2022-09-12T04:18:31.568Z,9.418053
2022-09-12T04:19:31.544Z,9.418138
2022-09-12T04:20:31.537Z,9.418101
2022-09-12T04:21:31.529Z,9.417974
2022-09-12T04:22:31.528Z,9.417800
2022-09-12T04:23:31.532Z,9.417975
2022-09-12T04:24:31.514Z,9.418099
2022-09-12T04:25:31.555Z,9.418262
2022-09-12T04:26:31.499Z,9.418119
2022-09-12T04:27:31.492Z,9.418173
2022-09-12T04:28:31.484Z,9.418238
2022-09-12T04:29:31.497Z,9.418145
2022-09-12T04:30:31.488Z,9.418120
2022-09-12T04:31:31.465Z,9.418228
2022-09-12T04:32:31.461Z,9.417992
2022-09-12T04:33:31.451Z,9.418059
2022-09-12T04:34:31.459Z,9.418211
2022-09-12T04:35:31.468Z,9.418201
2022-09-12T04:36:31.423Z,9.418249
2022-09-12T04:37:31.423Z,9.418371
2022-09-12T04:38:31.421Z,9.418364
2022-09-12T04:39:31.411Z,9.418203
2022-09-12T04:40:31.415Z,9.418310
2022-09-12T04:41:31.398Z,9.418171
2022-09-12T04:42:31.392Z,9.418283
2022-09-12T04:43:31.399Z,9.418404
2022-09-12T04:44:31.409Z,9.418401
2022-09-12T04:45:31.416Z,9.418221
2022-09-12T04:46:31.363Z,9.418192
2022-09-12T04:47:31.360Z,9.418241
2022-09-12T04:48:31.354Z,9.418416
2022-09-12T04:49:31.343Z,9.418297
2022-09-12T04:50:31.355Z,9.418048
2022-09-12T04:51:31.327Z,9.418249
2022-09-12T04:52:31.328Z,9.418108
2022-09-12T04:53:31.315Z,9.418034
2022-09-12T04:54:31.308Z,9.418200
2022-09-12T04:55:31.319Z,9.418162
2022-09-12T04:56:31.296Z,9.418240
2022-09-12T04:57:31.292Z,9.418299
2022-09-12T04:58:31.287Z,9.418235
2022-09-12T04:59:31.276Z,9.418282
2022-09-12T05:00:31.275Z,9.418345
2022-09-12T05:01:31.338Z,9.418315
2022-09-12T05:02:31.285Z,9.418183
2022-09-12T05:03:31.247Z,9.418122
2022-09-12T05:04:31.235Z,9.418239
2022-09-12T05:05:31.236Z,9.418251
2022-09-12T05:06:31.234Z,9.418256
2022-09-12T05:07:31.220Z,9.418256
2022-09-12T05:08:31.211Z,9.418262
2022-09-12T05:09:31.199Z,9.418227
2022-09-12T05:10:31.208Z,9.418283
2022-09-12T05:11:52.973Z,9.418309
2022-09-12T05:12:33.187Z,9.418291
2022-09-12T05:13:31.174Z,9.418262
2022-09-12T05:14:31.188Z,9.418237
2022-09-12T05:15:31.161Z,9.418262
2022-09-12T05:16:31.164Z,9.418248
2022-09-12T05:17:32.147Z,9.418225
2022-09-12T05:18:31.143Z,9.418247
2022-09-12T05:19:31.144Z,9.418298
2022-09-12T05:20:31.131Z,9.418248
2022-09-12T05:21:31.135Z,9.418234
2022-09-12T05:22:31.111Z,9.418236
2022-09-12T05:23:31.110Z,9.418254
2022-09-12T05:24:31.102Z,9.418276
2022-09-12T05:25:31.095Z,9.418317
2022-09-12T05:26:31.096Z,9.418296
2022-09-12T05:27:31.083Z,9.418286
2022-09-12T05:28:31.075Z,9.418277
2022-09-12T05:29:31.072Z,9.418269
2022-09-12T05:30:31.108Z,9.418238
2022-09-12T05:31:31.073Z,9.418276
2022-09-12T05:32:31.048Z,9.418151
2022-09-12T05:33:31.026Z,9.418141
2022-09-12T05:34:31.030Z,9.418253
2022-09-12T05:35:31.042Z,9.418227
2022-09-12T05:36:31.023Z,9.418220
2022-09-12T05:37:31.007Z,9.418215
2022-09-12T05:38:31.069Z,9.418233
2022-09-12T05:39:32.031Z,9.418240
2022-09-12T05:40:30.987Z,9.418249
2022-09-12T05:41:31.006Z,9.418222
2022-09-12T05:42:30.968Z,9.418250
2022-09-12T05:43:30.980Z,9.418267
2022-09-12T05:44:30.983Z,9.418207
2022-09-12T05:45:30.975Z,9.418287
2022-09-12T05:46:30.946Z,9.418262
2022-09-12T05:47:30.955Z,9.418208
2022-09-12T05:48:30.938Z,9.418255
2022-09-12T05:49:30.932Z,9.418214
2022-09-12T05:50:30.927Z,9.418256
2022-09-12T05:51:30.907Z,9.418229
2022-09-12T05:52:30.924Z,9.418276
2022-09-12T05:53:30.899Z,9.418285
2022-09-12T05:54:31.757Z,9.418246
2022-09-12T05:55:30.875Z,9.418203
2022-09-12T05:56:30.931Z,9.418225
2022-09-12T05:57:30.871Z,9.418205
2022-09-12T05:58:30.886Z,9.418206
2022-09-12T05:59:30.850Z,9.418216
2022-09-12T06:00:33.510Z,9.418197
2022-09-12T06:01:31.893Z,9.418307
2022-09-12T06:02:30.868Z,9.418309
2022-09-12T06:03:30.833Z,9.418244
2022-09-12T06:04:30.821Z,9.418194
2022-09-12T06:05:30.809Z,9.418127
2022-09-12T06:06:30.818Z,9.418102
2022-09-12T06:07:30.793Z,9.418125
2022-09-12T06:08:30.817Z,9.418173
2022-09-12T06:09:30.807Z,9.418237
2022-09-12T06:10:30.785Z,9.418193
2022-09-12T06:11:30.773Z,9.418186
2022-09-12T06:12:30.777Z,9.418212
2022-09-12T06:13:30.813Z,9.418153
2022-09-12T06:14:30.753Z,9.417906
2022-09-12T06:15:30.745Z,9.418085
2022-09-12T06:16:30.781Z,9.418266
2022-09-12T06:17:30.743Z,9.418293
2022-09-12T06:18:30.771Z,9.418265
2022-09-12T06:19:30.720Z,9.418219
2022-09-12T06:20:30.717Z,9.418207
2022-09-12T06:21:30.705Z,9.418176
2022-09-12T06:22:30.786Z,9.418136
2022-09-12T06:23:30.698Z,9.418152
2022-09-12T06:24:30.693Z,9.418193
2022-09-12T06:25:30.686Z,9.418168
2022-09-12T06:26:30.676Z,9.418237
2022-09-12T06:27:30.661Z,9.418288
2022-09-12T06:28:30.657Z,9.418228
2022-09-12T06:29:30.669Z,9.418229
2022-09-12T06:30:30.708Z,9.418245
2022-09-12T06:31:30.649Z,9.418254
2022-09-12T06:32:30.637Z,9.418311
2022-09-12T06:33:30.617Z,9.418232
2022-09-12T06:34:30.621Z,9.418157
2022-09-12T06:35:30.629Z,9.418127
2022-09-12T06:36:30.610Z,9.418138
2022-09-12T06:37:30.597Z,9.418212
2022-09-12T06:38:30.599Z,9.418209
2022-09-12T06:39:30.590Z,9.418196
2022-09-12T06:40:30.581Z,9.418221
2022-09-12T06:41:30.589Z,9.418232
2022-09-12T06:42:30.560Z,9.418272
2022-09-12T06:43:30.561Z,9.418270
2022-09-12T06:44:30.561Z,9.418262
2022-09-12T06:45:30.578Z,9.418253
2022-09-12T06:46:30.549Z,9.418164
2022-09-12T06:47:30.544Z,9.418208
2022-09-12T06:48:30.537Z,9.418225
2022-09-12T06:49:30.541Z,9.418191
2022-09-12T06:50:30.537Z,9.418284
2022-09-12T06:51:30.520Z,9.418291
2022-09-12T06:52:30.498Z,9.418262
2022-09-12T06:53:30.501Z,9.418332
2022-09-12T06:54:30.492Z,9.418338
2022-09-12T06:55:30.504Z,9.418297
2022-09-12T06:56:30.497Z,9.418347
2022-09-12T06:57:30.488Z,9.418270
2022-09-12T06:58:30.465Z,9.418274
2022-09-12T06:59:30.457Z,9.418291
2022-09-12T07:00:30.600Z,9.418238
2022-09-12T07:01:30.453Z,9.418242
2022-09-12T07:02:30.481Z,9.418207
2022-09-12T07:03:30.442Z,9.418207
2022-09-12T07:04:30.433Z,9.418262
2022-09-12T07:05:30.441Z,9.418327
2022-09-12T07:06:30.417Z,9.418309
2022-09-12T07:07:30.409Z,9.418262
2022-09-12T07:08:30.405Z,9.418272
2022-09-12T07:09:30.405Z,9.418262
2022-09-12T07:10:30.401Z,9.418277
2022-09-12T07:11:30.405Z,9.418200
2022-09-12T07:12:30.392Z,9.418301
2022-09-12T07:13:30.373Z,9.418253
2022-09-12T07:14:30.361Z,9.418227
2022-09-12T07:15:30.397Z,9.418247
2022-09-12T07:16:31.484Z,9.418218
2022-09-12T07:17:30.352Z,9.418196
2022-09-12T07:18:30.340Z,9.418213
2022-09-12T07:19:30.333Z,9.418203
2022-09-12T07:20:30.328Z,9.418262
2022-09-12T07:21:30.343Z,9.418251
2022-09-12T07:22:30.318Z,9.418249
2022-09-12T07:23:30.294Z,9.418286
2022-09-12T07:24:30.309Z,9.418268
2022-09-12T07:25:30.296Z,9.418251
2022-09-12T07:26:30.320Z,9.418249
2022-09-12T07:27:30.284Z,9.418242
2022-09-12T07:28:30.285Z,9.418237
2022-09-12T07:29:36.932Z,9.418221
2022-09-12T07:30:32.276Z,9.418257
2022-09-12T07:31:30.273Z,9.418242
2022-09-12T07:32:30.249Z,9.418200
2022-09-12T07:33:30.244Z,9.418234
2022-09-12T07:34:30.236Z,9.418191
2022-09-12T07:35:30.217Z,9.418200
2022-09-12T07:36:30.234Z,9.418256
2022-09-12T07:37:30.221Z,9.418268
2022-09-12T07:38:30.202Z,9.418229
2022-09-12T07:39:30.202Z,9.418255
2022-09-12T07:40:30.196Z,9.418200
2022-09-12T07:41:30.195Z,9.418221
2022-09-12T07:42:30.176Z,9.418209
2022-09-12T07:43:30.172Z,9.418218
2022-09-12T07:44:30.161Z,9.418249
2022-09-12T07:45:30.157Z,9.418273
2022-09-12T07:46:30.160Z,9.418268
2022-09-12T07:47:30.148Z,9.418264
2022-09-12T07:48:30.136Z,9.418283
2022-09-12T07:49:30.132Z,9.418270
2022-09-12T07:50:30.124Z,9.418258
2022-09-12T07:51:30.150Z,9.418260
2022-09-12T07:52:30.111Z,9.418260
2022-09-12T07:53:30.109Z,9.418259
2022-09-12T07:54:30.123Z,9.418253
2022-09-12T07:55:30.093Z,9.418244
2022-09-12T07:56:32.027Z,9.418291
2022-09-12T07:57:31.072Z,9.418284
2022-09-12T07:58:30.068Z,9.418271
2022-09-12T07:59:51.363Z,9.418237
2022-09-12T08:00:32.049Z,9.418260
2022-09-12T08:01:30.105Z,9.418240
2022-09-12T08:02:30.059Z,9.418221
2022-09-12T08:03:30.034Z,9.418237
2022-09-12T08:04:30.029Z,9.418271
2022-09-12T08:05:30.011Z,9.418206
2022-09-12T08:06:30.012Z,9.418260
2022-09-12T08:07:29.992Z,9.418266
2022-09-12T08:08:29.984Z,9.418229
2022-09-12T08:09:29.975Z,9.418181
2022-09-12T08:10:29.972Z,9.418193
2022-09-12T08:11:29.951Z,9.418209
2022-09-12T08:12:29.975Z,9.418153
2022-09-12T08:13:29.956Z,9.418175
2022-09-12T08:14:29.940Z,9.418151
2022-09-12T08:15:29.967Z,9.418277
2022-09-12T08:16:29.925Z,9.418190
2022-09-12T08:17:29.931Z,9.418180
2022-09-12T08:18:29.916Z,9.418236
2022-09-12T08:19:29.908Z,9.418267
2022-09-12T08:20:29.900Z,9.418243
2022-09-12T08:21:29.883Z,9.418179
2022-09-12T08:22:29.892Z,9.418240
2022-09-12T08:23:29.891Z,9.418253
2022-09-12T08:24:29.873Z,9.418291
2022-09-12T08:25:29.860Z,9.418249
2022-09-12T08:26:29.860Z,9.418341
2022-09-12T08:27:29.920Z,9.418211
2022-09-12T08:28:29.850Z,9.418180
2022-09-12T08:29:29.833Z,9.418196
2022-09-12T08:30:29.839Z,9.418279
2022-09-12T08:31:29.816Z,9.418159
2022-09-12T08:32:29.812Z,9.418258
2022-09-12T08:33:29.827Z,9.418298
2022-09-12T08:34:29.972Z,9.418299
2022-09-12T08:35:29.800Z,9.418322
2022-09-12T08:36:29.801Z,9.418319
2022-09-12T08:37:29.797Z,9.418404
2022-09-12T08:38:29.776Z,9.418327
2022-09-12T08:39:29.783Z,9.418284
2022-09-12T08:40:29.763Z,9.418334
2022-09-12T08:41:29.760Z,9.418291
2022-09-12T08:42:29.741Z,9.418252
2022-09-12T08:43:30.766Z,9.418311
2022-09-12T08:44:29.739Z,9.418277
2022-09-12T08:45:29.723Z,9.418179
2022-09-12T08:46:29.768Z,9.418194
2022-09-12T08:47:29.715Z,9.418139
2022-09-12T08:48:29.716Z,9.418075
2022-09-12T08:49:29.716Z,9.418016
2022-09-12T08:50:29.699Z,9.418168
2022-09-12T08:51:29.689Z,9.418308
2022-09-12T08:52:29.687Z,9.418220
2022-09-12T08:53:29.701Z,9.418254
2022-09-12T08:54:29.679Z,9.418213
2022-09-12T08:55:29.676Z,9.418287
2022-09-12T08:56:31.686Z,9.418295
2022-09-12T08:57:30.649Z,9.418292
2022-09-12T08:58:29.646Z,9.418267
2022-09-12T08:59:29.652Z,9.418314
2022-09-12T09:00:29.624Z,9.418299
2022-09-12T09:01:29.690Z,9.418275
2022-09-12T09:02:29.641Z,9.418298
2022-09-12T09:03:29.608Z,9.418313
2022-09-12T09:04:29.600Z,9.418361
2022-09-12T09:05:29.591Z,9.418323
2022-09-12T09:06:29.580Z,9.418278
2022-09-12T09:07:29.574Z,9.418315
2022-09-12T09:08:29.567Z,9.418356
2022-09-12T09:09:29.571Z,9.418298
2022-09-12T09:10:29.568Z,9.418263
2022-09-12T09:11:29.541Z,9.418300
2022-09-12T09:12:29.539Z,9.418319
2022-09-12T09:13:29.536Z,9.418342
2022-09-12T09:14:29.544Z,9.418326
2022-09-12T09:15:29.558Z,9.418365
2022-09-12T09:16:29.503Z,9.418359
2022-09-12T09:17:29.502Z,9.418333
2022-09-12T09:18:29.500Z,9.418312
2022-09-12T09:19:29.504Z,9.418312
2022-09-12T09:20:29.483Z,9.418315
2022-09-12T09:21:29.476Z,9.418300
2022-09-12T09:22:29.468Z,9.418282
2022-09-12T09:23:29.459Z,9.418314
2022-09-12T09:24:29.475Z,9.418333
2022-09-12T09:25:29.447Z,9.418303
2022-09-12T09:26:29.439Z,9.418344
2022-09-12T09:27:40.575Z,9.418355
2022-09-12T09:28:31.455Z,9.418344
2022-09-12T09:29:29.435Z,9.418360
2022-09-12T09:30:29.419Z,9.418314
2022-09-12T09:31:29.466Z,9.418238
2022-09-12T09:32:29.399Z,9.418353
2022-09-12T09:33:29.404Z,9.418305
2022-09-12T09:34:29.403Z,9.418293
2022-09-12T09:35:33.134Z,9.418277
2022-09-12T09:36:30.391Z,9.418284
2022-09-12T09:37:29.371Z,9.418313
2022-09-12T09:38:29.367Z,9.418401
2022-09-12T09:39:29.367Z,9.418389
2022-09-12T09:40:29.355Z,9.418384
2022-09-12T09:41:29.380Z,9.418332
2022-09-12T09:42:29.347Z,9.418291
2022-09-12T09:43:29.346Z,9.418227
2022-09-12T09:44:29.356Z,9.418291
2022-09-12T09:45:29.323Z,9.418328
2022-09-12T09:46:29.371Z,9.418356
2022-09-12T09:47:29.311Z,9.418216
2022-09-12T09:48:29.360Z,9.418232
2022-09-12T09:49:29.305Z,9.418200
2022-09-12T09:50:29.292Z,9.418194
2022-09-12T09:51:29.292Z,9.418328
2022-09-12T09:52:29.275Z,9.418284
2022-09-12T09:53:29.303Z,9.418388
2022-09-12T09:54:29.268Z,9.418372
2022-09-12T09:55:29.263Z,9.418321
2022-09-12T09:56:29.247Z,9.418256
2022-09-12T09:57:29.248Z,9.418317
2022-09-12T09:58:29.248Z,9.418345
2022-09-12T09:59:29.243Z,9.418240
2022-09-12T10:00:29.216Z,9.418292
2022-09-12T10:01:29.253Z,9.418181
2022-09-12T10:02:29.270Z,9.418176
2022-09-12T10:03:29.208Z,9.418213
2022-09-12T10:04:29.219Z,9.418217
2022-09-12T10:05:29.191Z,9.418248
2022-09-12T10:06:29.195Z,9.418194
2022-09-12T10:07:29.207Z,9.418293
2022-09-12T10:08:29.183Z,9.418324
2022-09-12T10:09:29.182Z,9.418256
2022-09-12T10:10:29.162Z,9.418162
2022-09-12T10:11:29.156Z,9.418171
2022-09-12T10:12:29.158Z,9.418209
2022-09-12T10:13:29.148Z,9.418236
2022-09-12T10:14:29.159Z,9.418253
2022-09-12T10:15:29.157Z,9.418250
2022-09-12T10:16:29.111Z,9.418285
2022-09-12T10:17:33.891Z,9.418330
2022-09-12T10:18:31.147Z,9.418396
2022-09-12T10:19:30.116Z,9.418323
2022-09-12T10:20:29.083Z,9.418360
2022-09-12T10:21:29.087Z,9.418310
2022-09-12T10:22:29.091Z,9.418376
2022-09-12T10:23:29.076Z,9.418306
2022-09-12T10:24:29.093Z,9.418329
2022-09-12T10:25:29.079Z,9.418259
2022-09-12T10:26:29.047Z,9.418210
2022-09-12T10:27:29.062Z,9.418221
2022-09-12T10:28:29.045Z,9.418188
2022-09-12T10:29:29.059Z,9.418201
2022-09-12T10:30:29.187Z,9.418223
2022-09-12T10:31:29.098Z,9.418226
2022-09-12T10:32:30.985Z,9.418282
2022-09-12T10:33:29.012Z,9.418257
2022-09-12T10:34:29.010Z,9.418292
2022-09-12T10:35:29.002Z,9.418344
2022-09-12T10:36:29.064Z,9.418362
2022-09-12T10:37:29.035Z,9.418329
2022-09-12T10:38:28.987Z,9.418183
2022-09-12T10:39:28.967Z,9.418223
2022-09-12T10:40:28.963Z,9.418185
2022-09-12T10:41:29.112Z,9.418187
2022-09-12T10:42:28.959Z,9.418174
2022-09-12T10:43:28.954Z,9.418218
2022-09-12T10:44:28.950Z,9.418264
2022-09-12T10:45:28.949Z,9.418369
2022-09-12T10:46:29.003Z,9.418437
2022-09-12T10:47:28.931Z,9.418287
2022-09-12T10:48:28.906Z,9.418298
2022-09-12T10:49:28.914Z,9.418277
2022-09-12T10:50:28.911Z,9.418243
2022-09-12T10:51:28.904Z,9.418283
2022-09-12T10:52:28.907Z,9.418276
2022-09-12T10:53:33.642Z,9.418283
2022-09-12T10:54:30.879Z,9.418347
2022-09-12T10:55:28.875Z,9.418356
2022-09-12T10:56:28.870Z,9.418318
2022-09-12T10:57:28.888Z,9.418260
2022-09-12T10:58:28.919Z,9.418185
2022-09-12T10:59:28.858Z,9.418206
2022-09-12T11:00:28.846Z,9.418167
2022-09-12T11:01:28.868Z,9.418257
2022-09-12T11:02:28.901Z,9.418245
2022-09-12T11:03:28.834Z,9.418317
2022-09-12T11:04:28.818Z,9.418304
2022-09-12T11:05:28.814Z,9.418341
2022-09-12T11:06:28.815Z,9.418361
2022-09-12T11:07:28.811Z,9.418370
2022-09-12T11:08:28.806Z,9.418382
2022-09-12T11:09:28.799Z,9.418421
2022-09-12T11:10:31.016Z,9.418399
2022-09-12T11:11:29.787Z,9.418414
2022-09-12T11:12:28.787Z,9.418406
2022-09-12T11:13:28.783Z,9.418380
2022-09-12T11:14:28.770Z,9.418432
2022-09-12T11:15:28.767Z,9.418462
2022-09-12T11:16:28.760Z,9.418343
2022-09-12T11:17:28.746Z,9.418489
2022-09-12T11:18:28.756Z,9.418557
2022-09-12T11:19:28.738Z,9.418418
2022-09-12T11:20:28.733Z,9.418228
2022-09-12T11:21:28.723Z,9.418298
2022-09-12T11:22:31.741Z,9.418399
2022-09-12T11:23:29.718Z,9.418446
2022-09-12T11:24:28.719Z,9.418336
2022-09-12T11:25:28.697Z,9.418349
2022-09-12T11:26:28.699Z,9.418404
2022-09-12T11:27:28.684Z,9.418448
2022-09-12T11:28:28.687Z,9.418395
2022-09-12T11:29:28.671Z,9.418227
2022-09-12T11:30:28.731Z,9.418347
2022-09-12T11:31:28.651Z,9.418249
2022-09-12T11:32:28.659Z,9.418161
2022-09-12T11:33:28.650Z,9.418137
2022-09-12T11:34:28.645Z,9.418415
2022-09-12T11:35:28.635Z,9.418348
2022-09-12T11:36:28.627Z,9.418311
2022-09-12T11:37:28.624Z,9.418413
2022-09-12T11:38:28.621Z,9.418279
2022-09-12T11:39:28.631Z,9.418270
2022-09-12T11:40:28.624Z,9.418290
2022-09-12T11:41:28.596Z,9.418265
2022-09-12T11:42:28.581Z,9.418368
2022-09-12T11:43:28.574Z,9.418155
2022-09-12T11:44:28.593Z,9.418371